• Join FlightAware (Why Join?)
  • Login
  • US Flag 
05:35PM EDT


 

Airport Tracker/Info


-or-


 

Live Flight TrackerFlight Track Log ✈ SWA440 ✈ 15-Apr-2013 ✈ KMDW - KCLE

Flight Track Log - Related Links

Times and Time Zones

All times are in EDT time to prevent confusion due to time zone crossing. See the SWA440 flight status page for this flight to view local times or setup timezone preferences in your user account.

Time Position Orientation Groundspeed Altitude Reporting Facility
EDT Latitude Longitude Course Direction KTS MPH feet Rate Location/Type
09:13AM 41.8333 -87.7167 62° Northeast 226 260 3,100  Level Chicago TRACON
09:14AM 41.8167 -87.6333 105° East 254 292 4,800 1,320 Climbing Chicago TRACON
09:14AM 41.8078 -87.5928 106° East 252 290 5,000 360 Climbing Chicago Center
09:16AM 41.7947 -87.4872 99° East 280 322 5,400 1,860 Climbing Chicago Center
09:17AM 41.7872 -87.3750 95° East 300 345 8,900 3,300 Climbing Chicago Center
09:18AM 41.7778 -87.2589 96° East 313 360 12,300 3,180 Climbing Chicago Center
09:19AM 41.7675 -87.1269 96° East 352 405 15,500 3,180 Climbing Chicago Center
09:20AM 41.7622 -86.9822 93° East 389 448 19,000 3,300 Climbing Chicago Center
09:21AM 41.7650 -86.7975 89° East 414 476 22,400 2,700 Climbing Chicago Center
09:22AM 41.7769 -86.6400 84° East 447 514 24,700 2,100 Climbing Chicago Center
09:23AM 41.7944 -86.4653 82° East 471 542 26,800 1,980 Climbing Chicago Center
09:24AM 41.8122 -86.2842 82° East 489 563 28,900 2,220 Climbing Chicago Center
09:25AM 41.8294 -86.0981 83° East 502 578 31,400 1,980 Climbing Chicago Center
09:26AM 41.8467 -85.9136 83° East 499 574 33,000 720 Climbing Chicago Center
09:27AM 41.8675 -85.6956 83° East 491 565 33,000  Level Chicago Center
09:28AM 41.8842 -85.5133 83° East 489 563 33,000 -600 Level Chicago Center
09:29AM 41.8997 -85.3336 83° East 478 550 31,800 -1,560 Descending Chicago Center
09:29AM 41.9106 -85.2547 80° East 488 562 30,800 -1,980 Descending Cleveland Center
09:30AM 41.9242 -85.0742 84° East 499 574 29,000 -900 Descending Cleveland Center
09:31AM 41.9394 -84.8908 84° East 499 574 29,000  Level Cleveland Center
09:32AM 41.9547 -84.7047 84° East 499 574 29,000  Level Cleveland Center
09:33AM 41.9717 -84.5186 83° East 499 574 29,000  Level Cleveland Center
09:34AM 41.9861 -84.3322 84° East 499 574 29,000  Level Cleveland Center
09:35AM 41.9936 -84.1678 86° East 499 574 29,000  Level Cleveland Center
09:36AM 42.0075 -83.9869 84° East 499 574 29,000 -60 Level Cleveland Center
09:37AM 42.0211 -83.8033 84° East 494 568 28,900 -1,200 Descending Cleveland Center
09:38AM 42.0322 -83.6247 85° East 494 568 26,700 -2,160 Descending Cleveland Center
09:39AM 42.0428 -83.4519 85° East 472 543 24,600 -2,100 Descending Cleveland Center
09:40AM 42.0300 -83.2919 96° East 443 510 22,500 -1,620 Descending Cleveland Center
09:41AM 42.0133 -83.1181 97° East 429 494 21,400 -1,080 Descending Cleveland Center
09:42AM 41.9978 -82.9664 98° East 424 488 20,400 -1,200 Descending Cleveland Center
09:43AM 41.9842 -82.8178 97° East 413 475 19,000 -1,920 Descending Cleveland Center
09:44AM 41.9703 -82.6667 97° East 408 470 16,700 -2,340 Descending Cleveland Center
09:45AM 41.9478 -82.5261 102° East 397 457 14,400 -2,160 Descending Cleveland Center
09:46AM 41.9100 -82.4022 112° Southeast 382 440 12,400 -2,100 Descending Cleveland Center
09:47AM 41.8961 -82.3628 115° Southeast 350 403 11,700 -1,980 Descending Cleveland Center
09:47AM 41.8744 -82.2842 110° East 352 405 10,500 -1,020 Descending Cleveland Center
09:48AM 41.8425 -82.1858 114° Southeast 317 365 10,000 -360 Descending Cleveland Center
09:49AM 41.7869 -82.1286 142° Southeast 267 307 9,800 -900 Descending Cleveland Center
09:50AM 41.7272 -82.0772 147° Southeast 262 302 8,300 -1,440 Descending Cleveland Center
09:51AM 41.6756 -82.0286 145° Southeast 262 302 7,000 -1,140 Descending Cleveland Center
09:52AM 41.6550 -82.0144 153° Southeast 253 291 6,900 -1,440 Descending Cleveland Center
09:52AM 41.6181 -81.9747 141° Southeast 256 295 5,600 -1,920 Descending Cleveland Center
09:53AM 41.6058 -81.9494 123° Southeast 262 302 5,000 -840 Descending Cleveland Center
09:53AM 41.5939 -81.8908 105° East 236 272 4,800 -420 Descending Cleveland Center
09:54AM 41.5881 -81.8631 106° East 221 254 4,600 -720 Descending Cleveland Center
09:54AM 41.5592 -81.8319 141° Southeast 224 258 4,100 -840 Descending Cleveland Center
09:55AM 41.5469 -81.8150 134° Southeast 173 199 3,800 -1,020 Descending Cleveland Center
09:55AM 41.5222 -81.7867 139° Southeast 190 219 3,100 -720 Descending Cleveland Center
09:56AM 41.5014 -81.7836 174° South 172 198 3,100 -480 Level Cleveland Center
09:56AM 41.4681 -81.7747 169° South 148 170 2,600 -840 Descending Cleveland Center
09:58AM 41.4344 -81.8100 218° Southwest 124 143 1,500 -960 Descending Cleveland Center
10:00AM 41.4000 -81.8500 203° Southwest  Level FlightAware Approximate
10:07AM 41.4094 -81.8547 203° Southwest  Level Estimated